Time;durP1;ratioP1;P1;durP2;ratioP2;P2;SDS_P1;SDS_P2;PMS_P1;PMS_P2;Temp;Humidity;BMP_temperature;BMP_pressure;BME280_temperature;BME280_humidity;BME280_pressure;Samples;Min_cycle;Max_cycle;Signal;HPM_P1;HPM_P2
2023/05/28 00:02:04;;;;;;;14.25;4.20;;;;;;;15.71;74.87;101778.66;5082047;28;20105;-67
2023/05/28 00:04:29;;;;;;;13.23;4.20;;;;;;;15.73;75.35;101776.59;5088586;28;20032;-68
2023/05/28 00:06:55;;;;;;;14.50;4.78;;;;;;;15.60;77.21;101787.41;5082771;28;20126;-67
2023/05/28 00:09:21;;;;;;;14.63;4.45;;;;;;;15.54;77.52;101777.38;5067833;28;20024;-68
2023/05/28 00:11:47;;;;;;;16.58;4.53;;;;;;;15.41;77.96;101765.47;5090237;28;20058;-67
2023/05/28 00:14:12;;;;;;;15.10;4.20;;;;;;;15.42;78.29;101774.44;5101627;28;20028;-67
2023/05/28 00:16:38;;;;;;;18.77;5.05;;;;;;;15.42;79.19;101774.44;5048958;28;20036;-66
2023/05/28 00:19:04;;;;;;;20.75;5.65;;;;;;;15.39;79.74;101769.44;5101627;28;20054;-67
2023/05/28 00:21:32;;;;;;;24.80;5.43;;;;;;;15.33;80.04;101760.28;5083372;28;20502;-67
2023/05/28 00:23:58;;;;;;;17.55;4.72;;;;;;;15.42;80.15;101761.72;5083801;28;20067;-67
2023/05/28 00:26:25;;;;;;;14.38;4.22;;;;;;;15.31;81.19;101756.09;5100635;28;20024;-67
2023/05/28 00:28:50;;;;;;;19.30;4.85;;;;;;;15.43;80.72;101752.56;5083674;28;20024;-66
2023/05/28 00:31:16;;;;;;;20.52;4.80;;;;;;;15.43;80.70;101751.69;5083020;28;20472;-67
2023/05/28 00:33:43;;;;;;;17.33;4.60;;;;;;;15.49;80.50;101754.41;5101508;28;20032;-67
2023/05/28 00:36:09;;;;;;;14.25;4.50;;;;;;;15.33;81.07;101732.28;5061367;28;20028;-67
2023/05/28 00:38:34;;;;;;;19.48;5.00;;;;;;;15.49;81.04;101743.56;5083123;28;20466;-67
2023/05/28 00:41:00;;;;;;;20.05;4.68;;;;;;;15.55;80.66;101741.06;5102684;28;20032;-67
2023/05/28 00:43:25;;;;;;;18.52;4.80;;;;;;;15.33;81.32;101711.47;5083531;28;20092;-67
2023/05/28 00:45:51;;;;;;;17.20;4.55;;;;;;;15.55;81.14;101731.03;5101000;28;20024;-66
2023/05/28 00:48:17;;;;;;;25.77;4.90;;;;;;;15.38;81.54;101711.66;5101816;28;20032;-67
2023/05/28 00:50:43;;;;;;;17.13;4.65;;;;;;;15.35;83.07;101733.75;5083294;28;20016;-69
2023/05/28 00:53:10;;;;;;;25.67;5.90;;;;;;;15.56;82.23;101721.84;5084093;28;20024;-68
2023/05/28 00:55:36;;;;;;;16.63;4.20;;;;;;;15.44;82.89;101729.81;5088318;28;20032;-66
2023/05/28 00:58:05;;;;;;;23.25;5.18;;;;;;;15.42;83.23;101726.47;5102849;28;20102;-67
2023/05/28 01:00:32;;;;;;;23.23;5.50;;;;;;;15.52;82.70;101721.44;5103017;28;20025;-67
2023/05/28 01:02:58;;;;;;;22.83;4.80;;;;;;;15.57;82.94;101712.69;5083282;28;20138;-66
2023/05/28 01:05:24;;;;;;;23.15;5.03;;;;;;;15.53;82.85;101706.03;5100456;28;20073;-67
2023/05/28 01:07:50;;;;;;;24.42;5.47;;;;;;;15.58;82.99;101710.81;5100917;28;20032;-67
2023/05/28 01:10:16;;;;;;;20.13;4.78;;;;;;;15.59;83.22;101704.34;5100893;28;20024;-67
2023/05/28 01:12:43;;;;;;;17.13;4.57;;;;;;;15.49;83.90;101704.75;5101042;28;20083;-67
2023/05/28 01:15:10;;;;;;;21.23;4.85;;;;;;;15.55;83.97;101698.50;5086308;28;20024;-66
2023/05/28 01:17:36;;;;;;;20.60;4.60;;;;;;;15.50;84.39;101707.28;5085411;28;20469;-65
2023/05/28 01:20:05;;;;;;;23.27;5.68;;;;;;;15.46;85.16;101697.91;5086171;28;20024;-66
2023/05/28 01:22:37;;;;;;;19.80;5.00;;;;;;;15.27;85.45;101671.63;5085730;28;20028;-66
2023/05/28 01:25:09;;;;;;;21.25;5.10;;;;;;;15.49;85.93;101699.34;5104079;28;20491;-67
2023/05/28 01:27:39;;;;;;;18.60;4.70;;;;;;;15.58;86.11;101697.25;5104533;28;20032;-68
2023/05/28 01:30:12;;;;;;;19.58;4.63;;;;;;;15.60;85.84;101697.88;5087253;28;20020;-67
2023/05/28 01:32:41;;;;;;;20.02;4.25;;;;;;;15.48;87.21;101693.06;5104725;28;20028;-69
2023/05/28 01:35:08;;;;;;;15.93;5.00;;;;;;;15.42;88.30;101693.09;5104034;28;20024;-68
2023/05/28 01:37:38;;;;;;;14.43;3.70;;;;;;;15.37;88.86;101691.00;5086319;28;20024;-73
2023/05/28 01:40:04;;;;;;;16.75;4.43;;;;;;;15.46;88.39;101684.34;5092404;28;20023;-71
2023/05/28 01:42:33;;;;;;;20.02;4.68;;;;;;;15.43;88.38;101684.75;5085745;28;20036;-67
2023/05/28 01:45:00;;;;;;;18.30;4.47;;;;;;;15.57;87.16;101679.31;5104719;28;20078;-67
2023/05/28 01:47:26;;;;;;;20.75;4.82;;;;;;;15.06;88.79;101639.28;5103099;28;20076;-66
2023/05/28 01:49:53;;;;;;;17.75;4.43;;;;;;;15.39;88.99;101679.94;5087002;28;20063;-66
2023/05/28 01:52:18;;;;;;;23.88;4.60;;;;;;;15.32;89.71;101676.41;5102704;28;20035;-66
2023/05/28 01:54:44;;;;;;;16.65;4.63;;;;;;;15.47;88.54;101677.84;5067576;28;20032;-67
2023/05/28 01:57:10;;;;;;;16.50;3.92;;;;;;;15.39;88.55;101671.81;5102818;28;20033;-67
2023/05/28 01:59:36;;;;;;;22.00;4.55;;;;;;;15.40;88.36;101673.50;5103956;28;20059;-67
2023/05/28 02:02:01;;;;;;;21.08;4.80;;;;;;;15.42;88.95;101668.66;5082532;28;20045;-66
2023/05/28 02:04:26;;;;;;;16.45;4.43;;;;;;;15.38;89.63;101668.25;5083557;28;20027;-66
2023/05/28 02:06:52;;;;;;;16.38;4.50;;;;;;;15.38;89.28;101675.56;5065142;28;20377;-67
2023/05/28 02:09:17;;;;;;;18.55;4.45;;;;;;;15.40;89.58;101662.66;5083624;28;20077;-67
2023/05/28 02:11:43;;;;;;;12.75;4.00;;;;;;;15.41;89.41;101670.56;5082112;28;20035;-67
2023/05/28 02:14:14;;;;;;;21.27;3.63;;;;;;;15.44;89.55;101664.72;5081625;28;20055;-67
2023/05/28 02:16:52;;;;;;;15.50;4.35;;;;;;;15.37;90.08;101666.59;5082661;28;20058;-66
2023/05/28 02:19:18;;;;;;;16.73;3.90;;;;;;;15.22;90.83;101658.66;5081137;28;20048;-67
2023/05/28 02:21:43;;;;;;;14.35;3.60;;;;;;;15.33;90.05;101657.22;5080864;28;20579;-67
2023/05/28 02:24:09;;;;;;;14.57;4.03;;;;;;;15.36;89.82;101664.91;5081021;28;20040;-66
2023/05/28 02:26:34;;;;;;;16.10;4.03;;;;;;;15.36;89.28;101662.19;5081427;28;20028;-67
2023/05/28 02:29:00;;;;;;;19.08;4.43;;;;;;;15.37;89.48;101668.50;5066069;28;20044;-67
2023/05/28 02:31:25;;;;;;;17.25;3.40;;;;;;;15.39;89.47;101675.34;5083554;28;20031;-67
2023/05/28 02:33:51;;;;;;;8.73;2.97;;;;;;;15.10;91.22;101659.50;5084414;28;20106;-67
2023/05/28 02:36:16;;;;;;;11.75;3.67;;;;;;;15.31;88.53;101674.75;5066439;28;20036;-66
2023/05/28 02:38:42;;;;;;;13.02;3.20;;;;;;;15.38;87.72;101673.69;5084096;28;20522;-67
2023/05/28 02:41:09;;;;;;;15.50;3.85;;;;;;;15.28;88.55;101667.84;5084020;28;20028;-67
2023/05/28 02:43:34;;;;;;;17.13;3.28;;;;;;;15.25;88.92;101670.97;5083048;28;20025;-66
2023/05/28 02:46:00;;;;;;;12.10;2.50;;;;;;;15.26;88.38;101672.63;5078316;28;20028;-66
2023/05/28 02:48:26;;;;;;;8.57;2.72;;;;;;;15.14;88.72;101663.47;5080832;28;20036;-67
2023/05/28 02:50:51;;;;;;;11.05;2.80;;;;;;;15.18;88.22;101673.69;5066476;28;20387;-67
2023/05/28 02:53:21;;;;;;;11.95;3.03;;;;;;;15.16;87.77;101669.50;5083353;28;20074;-66
2023/05/28 02:55:47;;;;;;;9.90;2.55;;;;;;;15.03;88.43;101668.50;5081541;28;20037;-67
2023/05/28 02:58:12;;;;;;;8.55;2.70;;;;;;;15.05;87.48;101676.41;5080855;28;20023;-67
2023/05/28 03:00:38;;;;;;;11.55;2.58;;;;;;;15.02;87.71;101674.94;5083232;28;20115;-67
2023/05/28 03:03:04;;;;;;;6.95;2.22;;;;;;;15.13;86.54;101654.53;5068023;28;20055;-67
2023/05/28 03:05:31;;;;;;;9.32;2.60;;;;;;;15.18;86.45;101665.56;5085063;28;20020;-67
2023/05/28 03:07:57;;;;;;;11.25;2.25;;;;;;;15.10;86.73;101671.19;5103224;28;20510;-66
2023/05/28 03:10:23;;;;;;;9.25;2.03;;;;;;;15.13;86.44;101673.50;5103141;28;20051;-67
2023/05/28 03:12:49;;;;;;;8.90;2.60;;;;;;;15.02;87.56;101672.22;5084999;28;20107;-67
2023/05/28 03:15:14;;;;;;;9.70;2.28;;;;;;;14.95;88.45;101668.66;5066742;28;20060;-67
2023/05/28 03:17:40;;;;;;;11.15;2.65;;;;;;;15.09;87.07;101666.81;5102781;28;20047;-66
2023/05/28 03:20:10;;;;;;;10.60;2.80;;;;;;;15.06;87.07;101660.97;5083544;28;20443;-67
2023/05/28 03:22:36;;;;;;;11.90;2.50;;;;;;;15.33;86.71;101667.22;5083970;28;20119;-67
2023/05/28 03:25:02;;;;;;;15.13;3.08;;;;;;;15.77;84.73;101666.56;5102302;28;20032;-67
2023/05/28 03:27:28;;;;;;;11.43;3.53;;;;;;;16.28;82.15;101671.19;5066736;28;20023;-67
2023/05/28 03:29:53;;;;;;;15.73;2.90;;;;;;;16.82;79.02;101671.75;5085316;28;20040;-67
2023/05/28 03:32:18;;;;;;;10.32;2.17;;;;;;;16.61;80.12;101675.63;5084150;28;20412;-66
2023/05/28 03:34:44;;;;;;;13.25;2.78;;;;;;;17.29;77.06;101662.19;5078674;28;20053;-66
2023/05/28 03:37:09;;;;;;;12.95;3.10;;;;;;;17.03;77.86;101667.84;5070636;28;20111;-67
2023/05/28 03:39:35;;;;;;;14.15;3.72;;;;;;;16.63;79.96;101668.09;5087008;28;20059;-68
2023/05/28 03:42:01;;;;;;;11.02;2.95;;;;;;;16.10;83.33;101671.91;5086424;28;20020;-66
2023/05/28 03:44:26;;;;;;;12.02;2.92;;;;;;;15.90;84.46;101658.38;5086583;28;20052;-66
2023/05/28 03:46:52;;;;;;;9.35;2.38;;;;;;;15.96;84.38;101673.81;5069458;28;20066;-67
2023/05/28 03:49:17;;;;;;;9.70;2.72;;;;;;;15.98;83.41;101644.56;5103492;28;20024;-67
2023/05/28 03:51:43;;;;;;;14.35;2.90;;;;;;;17.00;79.36;101671.00;5064607;28;20464;-67
2023/05/28 03:54:08;;;;;;;11.40;2.88;;;;;;;17.72;74.80;101639.59;5100914;28;20077;-67
2023/05/28 03:56:35;;;;;;;10.38;2.33;;;;;;;18.16;72.76;101662.13;5084875;28;20105;-72
2023/05/28 03:59:01;;;;;;;11.40;2.53;;;;;;;18.25;71.96;101660.78;5068594;28;20028;-66
2023/05/28 04:01:26;;;;;;;10.75;2.47;;;;;;;18.87;69.55;101662.44;5103350;28;20044;-66
2023/05/28 04:03:55;;;;;;;11.10;2.38;;;;;;;19.19;68.35;101671.16;5095258;28;20032;-67
2023/05/28 04:06:20;;;;;;;12.70;2.70;;;;;;;19.20;67.73;101664.63;5078417;28;20108;-67
2023/05/28 04:08:47;;;;;;;12.57;2.70;;;;;;;18.99;68.01;101657.84;5047507;28;20078;-67
2023/05/28 04:11:12;;;;;;;11.50;2.55;;;;;;;18.77;69.42;101663.88;5082682;28;20104;-67
2023/05/28 04:13:38;;;;;;;7.57;1.83;;;;;;;18.09;71.34;101664.13;5065615;28;20095;-66
2023/05/28 04:16:04;;;;;;;10.63;2.38;;;;;;;18.29;71.43;101667.41;5066810;28;20039;-66
2023/05/28 04:18:29;;;;;;;10.20;2.88;;;;;;;18.22;71.07;101660.41;5066571;28;20028;-70
2023/05/28 04:20:55;;;;;;;12.65;2.33;;;;;;;17.85;72.50;101676.75;5065796;28;20032;-66
2023/05/28 04:23:20;;;;;;;7.90;2.50;;;;;;;17.78;73.42;101671.38;5048294;28;20119;-66
2023/05/28 04:25:47;;;;;;;14.02;2.63;;;;;;;18.44;70.81;101672.47;5077143;28;20098;-67
2023/05/28 04:28:12;;;;;;;11.50;2.45;;;;;;;19.01;68.12;101669.38;5064930;28;20027;-68
2023/05/28 04:30:38;;;;;;;11.95;3.25;;;;;;;19.34;66.51;101666.09;5098796;28;20020;-67
2023/05/28 04:33:03;;;;;;;13.18;3.13;;;;;;;19.71;64.77;101668.59;5081420;28;20483;-67
2023/05/28 04:35:29;;;;;;;9.35;2.60;;;;;;;18.51;69.30;101666.94;5081675;28;20028;-67
2023/05/28 04:37:55;;;;;;;11.40;2.58;;;;;;;18.18;70.05;101654.59;5082838;28;20039;-67
2023/05/28 04:40:21;;;;;;;10.18;3.00;;;;;;;18.48;69.73;101675.56;5100756;28;20038;-67
2023/05/28 04:42:47;;;;;;;8.48;2.25;;;;;;;17.77;72.07;101672.41;5100558;28;20042;-67
2023/05/28 04:45:13;;;;;;;13.95;2.90;;;;;;;17.06;75.67;101686.44;5098106;28;20066;-66
2023/05/28 04:47:39;;;;;;;9.38;2.30;;;;;;;16.62;78.07;101683.56;5081454;28;20039;-66
2023/05/28 04:50:06;;;;;;;7.32;1.90;;;;;;;16.49;78.81;101690.94;5098595;28;20024;-67
2023/05/28 04:52:35;;;;;;;7.57;2.30;;;;;;;16.42;79.65;101686.41;5103006;28;20376;-66
2023/05/28 04:55:06;;;;;;;11.00;2.40;;;;;;;16.35;79.29;101688.28;5084027;28;20487;-66
2023/05/28 04:57:32;;;;;;;8.15;2.10;;;;;;;16.29;79.84;101688.31;5080202;28;20029;-66
2023/05/28 04:59:58;;;;;;;12.52;2.45;;;;;;;16.62;78.07;101688.16;5067482;28;20066;-68
2023/05/28 05:02:24;;;;;;;8.23;2.13;;;;;;;16.37;79.59;101691.63;5071195;28;20067;-67
2023/05/28 05:04:49;;;;;;;9.57;2.00;;;;;;;16.04;81.64;101683.59;5087521;28;20032;-67
2023/05/28 05:07:16;;;;;;;11.77;2.47;;;;;;;15.91;81.88;101681.75;5073274;28;20032;-67
2023/05/28 05:09:42;;;;;;;7.63;2.65;;;;;;;15.79;82.66;101678.03;5071387;28;20060;-67
2023/05/28 05:12:08;;;;;;;9.95;2.35;;;;;;;16.03;81.27;101687.38;5062594;28;20028;-69
2023/05/28 05:14:34;;;;;;;9.00;2.42;;;;;;;16.00;81.98;101686.97;5068353;28;20075;-67
2023/05/28 05:17:00;;;;;;;11.38;2.25;;;;;;;15.74;83.79;101694.13;5066565;28;20080;-72
2023/05/28 05:19:26;;;;;;;10.23;2.25;;;;;;;15.74;83.89;101702.28;5066231;28;20044;-66
2023/05/28 05:21:52;;;;;;;10.93;1.85;;;;;;;15.60;83.07;101689.75;5064564;28;20285;-68
2023/05/28 05:24:17;;;;;;;8.60;2.55;;;;;;;15.56;81.62;101686.59;5047864;28;20032;-68
2023/05/28 05:26:43;;;;;;;11.50;2.30;;;;;;;16.10;79.04;101690.06;5061563;28;20040;-67
2023/05/28 05:29:09;;;;;;;13.70;2.42;;;;;;;16.33;77.41;101695.81;5060701;28;20036;-67
2023/05/28 05:31:34;;;;;;;10.13;2.65;;;;;;;16.40;76.05;101685.75;5063485;28;20025;-67
2023/05/28 05:33:59;;;;;;;14.88;2.88;;;;;;;16.74;71.91;101691.03;5062070;28;20048;-68
2023/05/28 05:36:26;;;;;;;15.25;3.88;;;;;;;17.03;69.42;101689.59;5061824;28;20029;-67
2023/05/28 05:38:51;;;;;;;15.50;2.88;;;;;;;17.13;67.73;101708.97;5061770;28;20431;-67
2023/05/28 05:41:16;;;;;;;16.13;3.55;;;;;;;17.03;65.70;101703.22;5061106;28;20040;-68
2023/05/28 05:43:42;;;;;;;14.32;3.25;;;;;;;17.01;64.04;101711.56;5062773;28;20025;-68
2023/05/28 05:46:07;;;;;;;15.32;3.20;;;;;;;16.74;63.06;101702.72;5060466;28;20025;-68
2023/05/28 05:48:33;;;;;;;12.65;3.45;;;;;;;17.02;62.28;101706.97;5060415;28;20036;-68
2023/05/28 05:51:00;;;;;;;19.45;3.50;;;;;;;16.65;61.83;101712.16;5061498;28;20053;-67
2023/05/28 05:53:26;;;;;;;13.13;3.05;;;;;;;16.90;61.26;101718.53;5080043;28;20107;-68
2023/05/28 05:55:51;;;;;;;12.07;2.45;;;;;;;16.93;60.39;101705.56;5057306;28;20132;-68
2023/05/28 05:58:17;;;;;;;16.40;2.78;;;;;;;16.95;59.82;101717.03;5060229;28;20612;-67
2023/05/28 06:00:44;;;;;;;20.48;4.20;;;;;;;16.94;60.81;101718.94;5059070;28;20108;-66
2023/05/28 06:03:09;;;;;;;16.75;3.47;;;;;;;16.86;61.50;101724.66;5081477;28;20024;-67
2023/05/28 06:05:35;;;;;;;16.80;3.70;;;;;;;17.36;60.70;101722.81;5082246;28;20057;-66
2023/05/28 06:08:02;;;;;;;17.20;3.38;;;;;;;17.01;60.37;101708.84;5063620;28;20514;-69
2023/05/28 06:10:29;;;;;;;15.85;3.65;;;;;;;16.99;60.58;101713.69;5081238;28;20017;-65
2023/05/28 06:12:55;;;;;;;13.45;3.05;;;;;;;17.11;59.86;101700.19;5081135;28;20035;-67
2023/05/28 06:15:21;;;;;;;15.25;3.83;;;;;;;16.95;58.42;101736.06;5064203;28;20023;-67
2023/05/28 06:17:47;;;;;;;12.10;2.83;;;;;;;17.17;58.56;101731.13;5084778;28;20036;-68
2023/05/28 06:20:13;;;;;;;14.60;3.33;;;;;;;17.32;58.57;101727.03;5062457;28;20039;-66
2023/05/28 06:22:39;;;;;;;14.85;2.88;;;;;;;16.82;58.31;101710.66;5080056;28;20097;-69
2023/05/28 06:25:08;;;;;;;15.75;3.92;;;;;;;16.83;59.04;101730.53;5062882;28;20022;-67
2023/05/28 06:27:35;;;;;;;10.35;2.80;;;;;;;16.93;58.62;101735.47;5085260;28;20403;-67
2023/05/28 06:30:02;;;;;;;11.43;3.67;;;;;;;16.51;60.12;101738.56;5082117;28;20024;-67
2023/05/28 06:32:27;;;;;;;16.73;4.05;;;;;;;16.13;59.61;101716.81;5099543;28;20070;-67
2023/05/28 06:34:52;;;;;;;21.67;4.22;;;;;;;16.62;61.03;101718.03;5063412;28;20060;-67
2023/05/28 06:37:18;;;;;;;16.83;3.50;;;;;;;16.72;60.27;101723.00;5059902;28;20039;-68
2023/05/28 06:39:43;;;;;;;11.32;3.03;;;;;;;16.15;59.93;101720.13;5061748;28;20052;-66
2023/05/28 06:42:09;;;;;;;17.20;2.85;;;;;;;16.16;60.03;101732.66;5079780;28;20048;-67
2023/05/28 06:44:35;;;;;;;20.00;3.25;;;;;;;16.11;60.58;101732.47;5045994;28;20035;-66
2023/05/28 06:47:01;;;;;;;11.93;2.63;;;;;;;16.30;59.03;101747.03;5079778;28;20028;-67
2023/05/28 06:49:26;;;;;;;14.85;3.20;;;;;;;16.74;57.66;101754.34;5090815;28;20078;-69
2023/05/28 06:51:52;;;;;;;18.40;3.33;;;;;;;16.99;57.25;101751.75;5079508;28;20036;-69
2023/05/28 06:54:17;;;;;;;14.48;2.47;;;;;;;16.39;58.11;101754.72;5101672;28;20081;-69
2023/05/28 06:56:43;;;;;;;18.70;3.30;;;;;;;16.29;58.21;101748.91;5083047;28;20032;-67
2023/05/28 06:59:08;;;;;;;15.90;3.40;;;;;;;16.80;58.62;101745.38;5081871;28;20036;-66
2023/05/28 07:01:34;;;;;;;16.00;2.88;;;;;;;16.74;57.27;101751.63;5065960;28;20051;-66
2023/05/28 07:03:59;;;;;;;14.38;2.58;;;;;;;16.34;57.33;101730.09;5081633;28;20108;-67
2023/05/28 07:06:25;;;;;;;9.45;2.67;;;;;;;16.35;57.52;101753.47;5081404;28;20053;-70
2023/05/28 07:08:52;;;;;;;13.23;3.28;;;;;;;16.58;57.81;101763.84;5049882;28;20051;-67
2023/05/28 07:11:17;;;;;;;16.50;3.13;;;;;;;16.62;59.40;101754.22;5080982;28;20024;-67
2023/05/28 07:13:44;;;;;;;14.20;3.10;;;;;;;16.33;59.91;101743.88;5099481;28;20287;-66
2023/05/28 07:16:10;;;;;;;17.67;4.18;;;;;;;16.07;61.10;101761.91;5090609;28;20081;-65
2023/05/28 07:18:36;;;;;;;19.58;3.45;;;;;;;15.70;62.36;101747.16;5062146;28;20076;-67
2023/05/28 07:21:01;;;;;;;19.23;3.88;;;;;;;15.94;61.83;101730.19;5029610;28;20028;-66
2023/05/28 07:23:28;;;;;;;16.50;3.67;;;;;;;15.86;63.12;101760.28;5080517;28;20403;-66
2023/05/28 07:25:53;;;;;;;18.60;3.65;;;;;;;16.04;63.20;101772.38;5062212;28;20028;-66
2023/05/28 07:28:19;;;;;;;18.13;3.60;;;;;;;16.03;62.64;101765.28;5044986;28;20033;-67
2023/05/28 07:30:45;;;;;;;20.05;3.97;;;;;;;16.02;63.87;101775.28;5062383;28;20047;-67
2023/05/28 07:33:10;;;;;;;18.85;3.30;;;;;;;16.10;62.75;101772.34;5066556;28;20028;-66
2023/05/28 07:35:36;;;;;;;9.35;2.13;;;;;;;16.15;61.51;101760.84;5065687;28;20472;-66
2023/05/28 07:38:02;;;;;;;20.27;3.15;;;;;;;16.28;61.40;101774.38;5100636;28;20111;-66
2023/05/28 07:40:27;;;;;;;16.80;3.72;;;;;;;16.61;59.59;101770.72;5101561;28;20027;-70
2023/05/28 07:42:53;;;;;;;12.05;2.70;;;;;;;16.59;59.84;101776.38;5097882;28;20021;-67
2023/05/28 07:45:18;;;;;;;17.08;3.22;;;;;;;16.75;58.70;101747.91;5089278;28;20024;-66
2023/05/28 07:47:44;;;;;;;14.70;3.17;;;;;;;16.63;58.01;101761.31;5070218;28;20525;-67
2023/05/28 07:50:10;;;;;;;11.60;2.78;;;;;;;16.58;57.07;101774.69;5067218;28;20471;-67
2023/05/28 07:52:36;;;;;;;10.23;2.67;;;;;;;16.25;56.49;101782.13;5079832;28;20494;-67
2023/05/28 07:55:03;;;;;;;14.52;2.65;;;;;;;16.25;57.02;101758.53;5080602;28;20052;-67
2023/05/28 07:57:29;;;;;;;12.15;2.42;;;;;;;16.66;55.99;101782.63;5079704;28;20395;-67
2023/05/28 07:59:55;;;;;;;13.60;2.60;;;;;;;16.44;56.79;101779.34;5045420;28;20024;-67
2023/05/28 08:02:20;;;;;;;9.57;2.28;;;;;;;16.60;57.06;101774.50;5062001;28;20074;-66
2023/05/28 08:04:46;;;;;;;13.02;2.80;;;;;;;16.53;58.38;101792.72;5079981;28;20040;-66
2023/05/28 08:07:12;;;;;;;14.30;3.17;;;;;;;16.01;59.92;101783.66;5044520;28;20025;-68
2023/05/28 08:09:40;;;;;;;16.85;3.17;;;;;;;16.23;58.54;101782.34;5058205;28;20035;-66
2023/05/28 08:12:06;;;;;;;16.45;2.70;;;;;;;16.47;58.41;101785.41;5079362;28;20021;-66
2023/05/28 08:14:32;;;;;;;18.20;4.20;;;;;;;16.28;60.08;101782.53;5076652;28;20030;-67
2023/05/28 08:16:57;;;;;;;12.68;3.08;;;;;;;16.53;60.46;101793.53;5059924;28;20032;-66
2023/05/28 08:19:22;;;;;;;10.63;2.58;;;;;;;16.65;59.65;101782.81;5058278;28;20527;-67
2023/05/28 08:21:48;;;;;;;14.77;2.53;;;;;;;16.69;58.59;101775.94;5064732;28;20052;-67
2023/05/28 08:24:13;;;;;;;17.60;3.13;;;;;;;16.78;59.30;101782.78;5085082;28;20032;-67
2023/05/28 08:26:39;;;;;;;12.70;2.75;;;;;;;16.38;60.75;101790.25;5083863;28;20028;-67
2023/05/28 08:29:04;;;;;;;14.18;3.13;;;;;;;16.61;59.79;101781.59;5063831;28;20035;-67
2023/05/28 08:31:31;;;;;;;18.00;3.53;;;;;;;16.99;59.01;101795.25;5047403;28;20025;-67
2023/05/28 08:33:57;;;;;;;14.23;2.70;;;;;;;16.55;60.16;101798.75;5082549;28;20064;-67
2023/05/28 08:36:23;;;;;;;12.05;2.53;;;;;;;16.53;59.43;101770.97;5082418;28;20024;-66
2023/05/28 08:38:48;;;;;;;14.75;2.65;;;;;;;16.76;58.02;101779.47;5047510;28;20062;-68
2023/05/28 08:41:14;;;;;;;17.73;3.88;;;;;;;16.86;57.34;101790.72;5077230;28;20036;-66
2023/05/28 08:43:39;;;;;;;15.45;3.00;;;;;;;16.65;59.10;101793.69;5080261;28;20036;-66
2023/05/28 08:46:05;;;;;;;13.63;3.25;;;;;;;16.54;61.17;101797.09;5081314;28;20021;-67
2023/05/28 08:48:34;;;;;;;17.20;3.50;;;;;;;16.59;60.46;101783.72;5062110;28;20032;-66
2023/05/28 08:51:00;;;;;;;15.07;3.58;;;;;;;16.64;60.96;101781.16;5059977;28;20039;-67
2023/05/28 08:53:30;;;;;;;13.45;3.00;;;;;;;16.84;60.23;101764.78;5063685;28;20051;-66
2023/05/28 08:55:56;;;;;;;20.52;3.15;;;;;;;16.75;59.97;101772.34;5081623;28;20085;-66
2023/05/28 08:58:21;;;;;;;17.27;2.67;;;;;;;16.60;59.38;101774.50;5063525;28;20107;-68
2023/05/28 09:00:50;;;;;;;14.70;2.80;;;;;;;16.61;59.02;101763.41;5062879;28;20040;-66
2023/05/28 09:03:16;;;;;;;16.02;2.78;;;;;;;16.78;58.55;101766.50;5064540;28;20029;-66
2023/05/28 09:05:41;;;;;;;13.45;2.50;;;;;;;16.67;58.49;101757.09;5060790;28;20088;-67
2023/05/28 09:08:09;;;;;;;16.60;3.25;;;;;;;16.47;60.69;101788.13;5064394;28;20491;-67
2023/05/28 09:10:38;;;;;;;13.80;2.65;;;;;;;16.74;60.37;101783.44;5082093;28;20368;-66
2023/05/28 09:13:04;;;;;;;12.77;2.35;;;;;;;16.83;58.85;101747.66;5063207;28;20484;-65
2023/05/28 09:15:30;;;;;;;13.68;2.47;;;;;;;17.10;57.67;101782.84;5076802;28;20025;-68
2023/05/28 09:17:59;;;;;;;13.32;2.58;;;;;;;16.90;59.18;101767.47;5079129;28;20105;-67
2023/05/28 09:20:25;;;;;;;11.27;1.85;;;;;;;17.02;59.65;101777.66;5061497;28;20027;-67
2023/05/28 09:23:02;;;;;;;10.35;2.45;;;;;;;16.97;58.48;101772.03;5084203;28;20028;-67
2023/05/28 09:25:28;;;;;;;12.18;2.50;;;;;;;17.12;57.53;101781.59;5082173;28;20147;-66
2023/05/28 09:27:58;;;;;;;12.90;2.50;;;;;;;17.18;57.55;101779.84;5047694;28;20068;-67
2023/05/28 09:30:24;;;;;;;13.88;2.35;;;;;;;17.05;57.59;101779.94;5064446;28;20024;-66
2023/05/28 09:33:00;;;;;;;11.52;2.53;;;;;;;16.90;57.53;101772.91;5063949;28;20036;-67
2023/05/28 09:35:26;;;;;;;12.27;2.22;;;;;;;16.90;58.91;101778.34;5084019;28;20024;-66
2023/05/28 09:38:11;;;;;;;14.35;2.88;;;;;;;17.06;58.43;101776.19;5085289;28;20101;-66
2023/05/28 09:40:39;;;;;;;12.82;2.45;;;;;;;16.84;59.87;101784.66;5086620;28;20021;-66
2023/05/28 09:43:06;;;;;;;18.92;2.85;;;;;;;16.95;58.24;101780.41;5085872;28;20103;-66
2023/05/28 09:45:33;;;;;;;10.82;2.22;;;;;;;16.71;59.13;101783.84;5068919;28;20032;-66
2023/05/28 09:47:58;;;;;;;11.43;2.47;;;;;;;16.96;59.42;101781.28;5083793;28;20495;-66
2023/05/28 09:50:24;;;;;;;10.60;2.60;;;;;;;16.68;59.71;101768.81;5065448;28;20085;-66
2023/05/28 09:52:54;;;;;;;8.48;1.92;;;;;;;16.37;59.72;101777.72;5063624;28;20059;-65
2023/05/28 09:55:24;;;;;;;9.95;2.38;;;;;;;16.61;59.26;101782.44;5081396;28;20025;-66
2023/05/28 09:58:10;;;;;;;12.65;2.08;;;;;;;16.74;58.44;101776.09;5089532;28;20028;-67
2023/05/28 10:00:41;;;;;;;7.82;2.13;;;;;;;16.68;58.85;101782.41;5088403;28;20029;-66
2023/05/28 10:03:22;;;;;;;12.70;3.00;;;;;;;16.36;61.65;101781.50;5087017;28;20076;-66
2023/05/28 10:06:03;;;;;;;13.73;2.55;;;;;;;16.58;60.78;101776.59;5086120;28;20025;-67
2023/05/28 10:08:31;;;;;;;11.05;2.17;;;;;;;16.90;58.35;101778.34;5069290;28;20044;-66
2023/05/28 10:10:57;;;;;;;14.65;3.05;;;;;;;16.99;57.77;101778.94;5082932;28;20026;-66
2023/05/28 10:13:23;;;;;;;9.70;2.70;;;;;;;16.94;58.42;101761.59;5059512;28;20024;-66
2023/05/28 10:15:49;;;;;;;16.45;3.08;;;;;;;16.87;58.07;101784.22;5067152;28;20382;-66
2023/05/28 10:18:15;;;;;;;13.90;3.10;;;;;;;16.70;60.16;101788.47;5064295;28;20121;-67
2023/05/28 10:20:41;;;;;;;10.60;2.13;;;;;;;16.44;59.94;101787.50;5078873;28;20029;-67
2023/05/28 10:23:08;;;;;;;12.52;2.00;;;;;;;16.63;58.95;101795.81;5082337;28;20025;-67
2023/05/28 10:25:34;;;;;;;12.85;2.70;;;;;;;16.61;59.63;101795.19;5069010;28;20029;-74
2023/05/28 10:28:02;;;;;;;11.77;2.58;;;;;;;16.61;59.85;101793.28;5092490;28;20043;-72
2023/05/28 10:30:36;;;;;;;13.30;2.90;;;;;;;16.73;59.89;101782.59;5075186;28;20031;-67
2023/05/28 10:33:09;;;;;;;13.57;2.50;;;;;;;16.95;59.67;101793.16;5073139;28;20030;-75
2023/05/28 10:35:49;;;;;;;10.10;2.47;;;;;;;17.14;59.02;101784.91;5063285;28;20028;-67
2023/05/28 10:38:15;;;;;;;13.88;2.50;;;;;;;17.02;58.70;101793.97;5063429;28;20077;-67
2023/05/28 10:40:40;;;;;;;10.73;1.85;;;;;;;16.78;58.73;101799.09;5063137;28;20032;-67
2023/05/28 10:43:37;;;;;;;9.10;1.90;;;;;;;16.59;59.67;101791.88;5062985;28;20063;-67
2023/05/28 10:46:03;;;;;;;12.60;2.35;;;;;;;16.86;59.46;101798.88;5062009;28;20399;-67
2023/05/28 10:48:31;;;;;;;11.35;2.38;;;;;;;17.27;58.35;101803.03;5060140;28;20128;-66
2023/05/28 10:51:01;;;;;;;11.57;2.10;;;;;;;17.41;58.01;101813.81;5062818;28;20028;-66
2023/05/28 10:53:27;;;;;;;13.70;2.33;;;;;;;17.56;57.13;101806.19;5062703;28;20110;-66
2023/05/28 10:55:56;;;;;;;10.60;2.08;;;;;;;17.58;57.25;101806.78;5063665;28;20040;-67
2023/05/28 10:58:28;;;;;;;11.43;1.88;;;;;;;17.49;56.82;101800.78;5062255;28;20040;-66
2023/05/28 11:01:05;;;;;;;12.70;2.20;;;;;;;17.58;56.94;101809.50;5062553;28;20025;-67
2023/05/28 11:03:43;;;;;;;7.68;1.85;;;;;;;17.65;56.42;101807.59;5080221;28;20121;-67
2023/05/28 11:06:10;;;;;;;12.13;2.33;;;;;;;17.51;57.49;101806.81;5080976;28;20051;-68
2023/05/28 11:08:41;;;;;;;13.65;2.70;;;;;;;17.28;58.67;101804.69;5046050;28;20039;-67
2023/05/28 11:11:06;;;;;;;12.20;2.20;;;;;;;16.84;59.06;101816.44;5062653;28;20396;-68
2023/05/28 11:13:33;;;;;;;14.32;3.28;;;;;;;16.73;61.59;101809.78;5062614;28;20024;-67
2023/05/28 11:16:10;;;;;;;9.15;2.33;;;;;;;16.61;60.90;101816.91;5062986;28;20036;-67
2023/05/28 11:18:35;;;;;;;11.65;2.55;;;;;;;16.43;61.55;101810.28;5080989;28;20020;-68